Time;durP1;ratioP1;P1;durP2;ratioP2;P2;SDS_P1;SDS_P2;PMS_P1;PMS_P2;Temp;Humidity;BMP_temperature;BMP_pressure;BME280_temperature;BME280_humidity;BME280_pressure;Samples;Min_cycle;Max_cycle;Signal;HPM_P1;HPM_P2
2023/07/10 00:00:11;;;;;;;7.43;6.33;;;24.50;86.30;;;;;;4992983;28;20434;-66
2023/07/10 00:02:38;;;;;;;5.93;5.43;;;24.50;86.00;;;;;;4989477;28;20434;-66
2023/07/10 00:05:11;;;;;;;6.57;5.97;;;24.50;85.40;;;;;;5001398;28;20466;-66
2023/07/10 00:07:36;;;;;;;5.73;5.10;;;24.50;85.60;;;;;;5001404;28;20559;-66
2023/07/10 00:10:02;;;;;;;5.80;5.30;;;24.50;86.80;;;;;;5002071;28;20521;-66
2023/07/10 00:12:27;;;;;;;6.67;6.03;;;24.40;88.50;;;;;;4989274;28;20237;-66
2023/07/10 00:14:53;;;;;;;5.67;5.17;;;24.40;91.30;;;;;;4993039;28;20180;-66
2023/07/10 00:17:18;;;;;;;6.37;5.77;;;24.20;91.70;;;;;;4997699;28;20352;-66
2023/07/10 00:19:44;;;;;;;5.60;5.10;;;24.20;91.50;;;;;;4992322;28;20270;-66
2023/07/10 00:22:09;;;;;;;6.43;5.80;;;24.10;90.70;;;;;;5007574;28;20179;-66
2023/07/10 00:24:35;;;;;;;7.10;4.57;;;24.10;91.00;;;;;;5008603;28;20218;-66
2023/07/10 00:27:00;;;;;;;6.73;5.87;;;24.10;90.50;;;;;;5007636;28;20207;-66
2023/07/10 00:29:31;;;;;;;5.40;4.97;;;24.10;91.50;;;;;;5004424;28;20238;-66
2023/07/10 00:31:57;;;;;;;5.80;5.30;;;24.10;89.00;;;;;;4987704;28;20182;-66
2023/07/10 00:34:25;;;;;;;5.93;5.47;;;24.10;89.50;;;;;;4992429;28;20458;-66
2023/07/10 00:36:51;;;;;;;6.30;5.70;;;24.10;90.10;;;;;;4992222;28;20466;-66
2023/07/10 00:39:20;;;;;;;8.30;6.67;;;24.10;91.70;;;;;;4992080;28;20438;-66
2023/07/10 00:41:49;;;;;;;8.47;5.63;;;24.10;91.30;;;;;;4992685;28;20434;-66
2023/07/10 00:44:16;;;;;;;7.90;7.07;;;24.10;91.20;;;;;;4992318;28;20536;-66
2023/07/10 00:46:48;;;;;;;6.77;6.07;;;24.20;91.40;;;;;;4991759;28;20524;-66
2023/07/10 00:49:40;;;;;;;5.70;5.20;;;24.20;91.30;;;;;;4992435;28;20772;-66
2023/07/10 00:52:20;;;;;;;8.50;6.40;;;24.20;91.30;;;;;;4981495;28;20443;-66
2023/07/10 00:54:52;;;;;;;6.50;6.00;;;24.20;91.30;;;;;;4989361;28;20472;-66
2023/07/10 00:57:33;;;;;;;5.30;4.83;;;24.30;91.20;;;;;;4992062;28;20983;-66
2023/07/10 01:00:00;;;;;;;6.80;6.20;;;24.30;91.70;;;;;;4990964;28;20504;-66
2023/07/10 01:02:26;;;;;;;7.90;6.67;;;24.30;92.30;;;;;;4990455;28;20497;-66
2023/07/10 01:04:58;;;;;;;6.77;6.07;;;24.30;92.80;;;;;;4996979;28;20458;-66
2023/07/10 01:07:27;;;;;;;6.87;6.13;;;24.20;93.60;;;;;;4991718;28;20207;-66
2023/07/10 01:10:01;;;;;;;6.90;6.30;;;24.10;94.10;;;;;;4997529;28;20525;-66
2023/07/10 01:12:28;;;;;;;7.10;6.23;;;24.00;94.50;;;;;;4996760;28;20516;-66
2023/07/10 01:14:54;;;;;;;8.70;6.47;;;24.00;94.80;;;;;;4985672;28;20447;-66
2023/07/10 01:17:19;;;;;;;6.60;6.10;;;24.00;95.10;;;;;;5007195;28;20970;-66
2023/07/10 01:19:46;;;;;;;6.60;6.00;;;24.00;95.10;;;;;;4997847;28;20675;-66
2023/07/10 01:22:13;;;;;;;9.50;6.30;;;23.90;95.60;;;;;;4992247;28;20187;-66
2023/07/10 01:24:38;;;;;;;8.53;7.57;;;23.90;95.80;;;;;;4991954;28;20955;-66
2023/07/10 01:27:07;;;;;;;7.33;6.63;;;23.90;95.80;;;;;;4986967;28;20467;-66
2023/07/10 01:29:41;;;;;;;7.30;6.60;;;23.90;96.20;;;;;;4993922;28;20176;-66
2023/07/10 01:32:12;;;;;;;7.60;6.77;;;23.90;97.40;;;;;;4993911;28;20484;-66
2023/07/10 01:34:49;;;;;;;7.20;6.60;;;23.90;98.30;;;;;;4983214;28;20526;-66
2023/07/10 01:37:14;;;;;;;9.80;6.17;;;24.00;98.60;;;;;;4990620;28;20446;-66
2023/07/10 01:39:44;;;;;;;7.77;7.10;;;23.90;99.70;;;;;;4989896;28;20443;-66
2023/07/10 01:42:10;;;;;;;7.33;6.73;;;23.90;99.90;;;;;;4991229;28;20203;-66
2023/07/10 01:44:42;;;;;;;8.03;7.33;;;23.90;99.90;;;;;;4990701;28;20427;-66
2023/07/10 01:47:09;;;;;;;7.03;6.33;;;23.80;99.90;;;;;;4987925;28;20465;-66
2023/07/10 01:49:47;;;;;;;6.60;6.07;;;23.80;99.90;;;;;;4989577;28;20441;-66
2023/07/10 01:52:15;;;;;;;7.17;6.57;;;23.70;99.90;;;;;;4989591;28;20863;-66
2023/07/10 01:54:41;;;;;;;9.40;6.60;;;23.60;99.90;;;;;;4980567;28;20435;-66
2023/07/10 01:57:08;;;;;;;7.40;5.80;;;23.60;99.90;;;;;;4987397;28;20450;-66
2023/07/10 01:59:33;;;;;;;6.90;6.27;;;23.50;99.90;;;;;;4990175;28;20227;-66
2023/07/10 02:02:00;;;;;;;8.80;8.00;;;23.50;99.90;;;;;;4990138;28;20462;-66
2023/07/10 02:04:26;;;;;;;11.60;7.10;;;23.40;99.90;;;;;;4990239;28;20662;-66
2023/07/10 02:06:54;;;;;;;10.50;7.70;;;23.50;99.90;;;;;;4992827;28;20470;-66
2023/07/10 02:09:21;;;;;;;9.47;6.83;;;23.50;99.90;;;;;;5000642;28;20935;-66
2023/07/10 02:11:47;;;;;;;10.03;7.93;;;23.50;99.90;;;;;;4998640;28;20583;-66
2023/07/10 02:14:12;;;;;;;7.67;6.30;;;23.50;99.90;;;;;;4999018;28;20971;-66
2023/07/10 02:16:38;;;;;;;8.77;7.97;;;23.50;99.90;;;;;;4986178;28;20547;-66
2023/07/10 02:19:04;;;;;;;7.60;6.90;;;23.50;99.90;;;;;;4992075;28;20191;-66
2023/07/10 02:21:31;;;;;;;8.70;7.00;;;23.50;99.90;;;;;;4992795;28;20171;-66
2023/07/10 02:23:56;;;;;;;12.13;7.40;;;23.50;99.90;;;;;;4993544;28;20457;-66
2023/07/10 02:26:22;;;;;;;9.43;7.83;;;23.60;99.90;;;;;;4993565;28;20960;-66
2023/07/10 02:28:48;;;;;;;8.67;7.90;;;23.70;99.90;;;;;;4994463;28;20179;-66
2023/07/10 02:31:13;;;;;;;8.23;7.40;;;23.70;99.90;;;;;;4991463;28;20176;-66
2023/07/10 02:33:38;;;;;;;8.17;7.37;;;23.70;99.90;;;;;;4991291;28;20191;-66
2023/07/10 02:36:04;;;;;;;10.50;7.13;;;23.60;99.90;;;;;;4992659;28;20188;-66
2023/07/10 02:38:30;;;;;;;9.90;7.40;;;23.70;99.90;;;;;;4986070;28;20661;-66
2023/07/10 02:40:56;;;;;;;8.50;7.43;;;23.70;99.90;;;;;;4987754;28;20652;-66
2023/07/10 02:43:21;;;;;;;8.43;7.67;;;23.70;99.90;;;;;;4993614;28;20183;-66
2023/07/10 02:45:47;;;;;;;8.90;8.20;;;23.80;99.90;;;;;;4989525;28;20475;-66
2023/07/10 02:48:13;;;;;;;12.10;7.03;;;23.90;99.90;;;;;;4988376;28;20214;-66
2023/07/10 02:50:38;;;;;;;7.63;7.00;;;23.90;99.90;;;;;;4990678;28;20234;-66
2023/07/10 02:53:04;;;;;;;9.67;7.53;;;24.00;99.90;;;;;;4986830;28;20246;-66
2023/07/10 02:55:29;;;;;;;9.53;7.67;;;24.10;99.90;;;;;;4989666;28;20903;-66
2023/07/10 02:57:55;;;;;;;8.27;7.50;;;24.00;99.90;;;;;;4984645;28;20204;-66
2023/07/10 03:00:20;;;;;;;8.87;8.07;;;24.00;99.90;;;;;;4991317;28;20355;-66
2023/07/10 03:02:46;;;;;;;7.70;7.00;;;24.00;99.90;;;;;;4994631;28;20183;-66
2023/07/10 03:05:11;;;;;;;8.83;7.97;;;23.80;99.90;;;;;;4993159;28;20203;-66
2023/07/10 03:07:37;;;;;;;9.70;8.13;;;23.70;99.90;;;;;;4994910;28;20211;-66
2023/07/10 03:10:06;;;;;;;8.43;7.43;;;23.70;99.90;;;;;;4996241;28;20215;-66
2023/07/10 03:12:31;;;;;;;10.37;7.93;;;23.60;99.90;;;;;;4994296;28;20430;-66
2023/07/10 03:14:57;;;;;;;8.93;8.03;;;23.70;99.90;;;;;;4994838;28;20438;-66
2023/07/10 03:17:22;;;;;;;9.93;8.23;;;23.70;99.90;;;;;;4993211;28;20266;-66
2023/07/10 03:19:50;;;;;;;8.83;7.93;;;23.80;99.90;;;;;;4984539;28;20237;-66
2023/07/10 03:22:15;;;;;;;9.07;7.30;;;23.80;99.90;;;;;;4988065;28;20183;-66
2023/07/10 03:24:41;;;;;;;8.50;7.67;;;23.80;99.90;;;;;;4987683;28;20489;-66
2023/07/10 03:27:06;;;;;;;10.60;8.30;;;23.90;99.90;;;;;;4997116;28;20234;-66
2023/07/10 03:29:32;;;;;;;8.27;7.47;;;24.00;99.90;;;;;;4989654;28;20207;-66
2023/07/10 03:31:57;;;;;;;7.97;7.20;;;23.90;99.90;;;;;;5002728;28;20253;-66
2023/07/10 03:34:23;;;;;;;12.63;7.70;;;23.80;99.90;;;;;;4999329;28;20179;-66
2023/07/10 03:36:50;;;;;;;7.73;7.13;;;23.80;99.90;;;;;;4999544;28;20210;-66
2023/07/10 03:39:15;;;;;;;9.63;7.17;;;23.60;99.90;;;;;;4989404;28;20702;-66
2023/07/10 03:41:41;;;;;;;10.20;7.70;;;23.60;99.90;;;;;;4989751;28;20527;-66
2023/07/10 03:44:09;;;;;;;7.97;7.17;;;23.50;99.90;;;;;;4990877;28;20180;-66
2023/07/10 03:46:35;;;;;;;7.90;7.20;;;23.60;99.90;;;;;;4997176;28;20261;-66
2023/07/10 03:49:00;;;;;;;8.10;7.07;;;23.60;99.90;;;;;;4995725;28;20434;-66
2023/07/10 03:51:26;;;;;;;8.17;7.40;;;23.60;99.90;;;;;;5002270;28;20286;-66
2023/07/10 03:53:52;;;;;;;9.13;7.70;;;23.60;99.90;;;;;;4998942;28;20214;-66
2023/07/10 03:56:17;;;;;;;7.73;7.13;;;23.60;99.90;;;;;;4993008;28;20184;-66
2023/07/10 03:58:44;;;;;;;8.57;7.77;;;23.60;99.90;;;;;;4989600;28;20278;-66
2023/07/10 04:01:10;;;;;;;9.20;7.47;;;23.60;99.90;;;;;;4992340;28;20240;-66
2023/07/10 04:03:38;;;;;;;9.47;8.40;;;23.60;99.90;;;;;;5001771;28;20970;-66
2023/07/10 04:06:05;;;;;;;9.10;8.20;;;23.70;99.90;;;;;;4990257;28;20473;-66
2023/07/10 04:08:37;;;;;;;9.73;8.77;;;23.80;99.90;;;;;;4988881;28;21001;-66
2023/07/10 04:11:06;;;;;;;9.43;7.63;;;23.80;99.90;;;;;;4999554;28;20840;-66
2023/07/10 04:13:31;;;;;;;7.63;7.03;;;23.90;99.90;;;;;;4987011;28;20455;-66
2023/07/10 04:16:02;;;;;;;9.67;8.50;;;23.80;99.90;;;;;;4991264;28;20851;-66
2023/07/10 04:18:29;;;;;;;9.43;7.73;;;23.80;99.90;;;;;;4993932;28;20203;-66
2023/07/10 04:20:56;;;;;;;9.57;8.43;;;23.80;99.90;;;;;;4988003;28;20443;-66
2023/07/10 04:23:21;;;;;;;14.73;9.10;;;23.80;99.90;;;;;;4988397;28;20959;-66
2023/07/10 04:25:48;;;;;;;9.23;8.33;;;23.80;99.90;;;;;;4992238;28;20474;-66
2023/07/10 04:28:13;;;;;;;10.40;7.47;;;23.80;99.90;;;;;;4992509;28;20207;-66
2023/07/10 04:30:38;;;;;;;9.20;8.23;;;23.90;99.90;;;;;;4994050;28;20445;-66
2023/07/10 04:33:08;;;;;;;7.93;7.23;;;24.00;99.90;;;;;;4993048;28;20699;-66
2023/07/10 04:35:33;;;;;;;10.10;7.97;;;23.90;99.90;;;;;;4993063;28;20552;-66
2023/07/10 04:37:59;;;;;;;7.80;7.10;;;23.90;99.90;;;;;;4998450;28;20542;-66
2023/07/10 04:40:24;;;;;;;8.50;7.70;;;23.80;99.90;;;;;;4998724;28;20179;-66
2023/07/10 04:42:51;;;;;;;9.57;7.53;;;23.90;99.90;;;;;;4987764;28;20649;-66
2023/07/10 04:45:17;;;;;;;9.10;7.50;;;23.90;99.90;;;;;;4989601;28;20257;-66
2023/07/10 04:47:42;;;;;;;8.97;8.00;;;24.00;99.90;;;;;;4992700;28;20454;-66
2023/07/10 04:50:08;;;;;;;9.93;8.30;;;24.00;99.90;;;;;;4987341;28;20637;-66
2023/07/10 04:52:34;;;;;;;13.60;7.67;;;24.00;99.90;;;;;;4986000;28;20210;-66
2023/07/10 04:55:00;;;;;;;10.87;7.97;;;24.00;99.90;;;;;;4992727;28;20860;-66
2023/07/10 04:57:25;;;;;;;8.73;7.50;;;24.00;99.90;;;;;;4991585;28;20204;-67
2023/07/10 04:59:51;;;;;;;9.17;8.03;;;24.00;99.90;;;;;;4993223;28;20278;-66
2023/07/10 05:02:16;;;;;;;8.87;7.97;;;24.00;99.90;;;;;;4991303;28;20215;-66
2023/07/10 05:04:42;;;;;;;9.37;7.80;;;24.00;99.90;;;;;;4989258;28;20257;-66
2023/07/10 05:07:08;;;;;;;9.07;8.23;;;24.00;99.90;;;;;;4997649;28;20211;-66
2023/07/10 05:09:33;;;;;;;8.93;7.67;;;24.10;99.90;;;;;;4995486;28;20195;-66
2023/07/10 05:11:59;;;;;;;9.77;8.60;;;24.30;99.90;;;;;;5001922;28;20565;-68
2023/07/10 05:14:24;;;;;;;8.47;7.47;;;24.50;99.90;;;;;;5000470;28;20171;-66
2023/07/10 05:16:50;;;;;;;7.50;6.90;;;24.60;99.90;;;;;;4990916;28;20195;-66
2023/07/10 05:19:16;;;;;;;8.40;7.70;;;24.80;99.90;;;;;;5000549;28;20203;-66
2023/07/10 05:21:42;;;;;;;9.03;8.00;;;24.90;99.90;;;;;;4999052;28;20589;-66
2023/07/10 05:24:08;;;;;;;8.37;7.23;;;25.00;99.90;;;;;;4992457;28;20661;-66
2023/07/10 05:26:33;;;;;;;11.40;7.90;;;25.30;99.90;;;;;;4991327;28;20474;-66
2023/07/10 05:28:59;;;;;;;7.63;6.93;;;25.50;99.90;;;;;;5004634;28;20188;-66
2023/07/10 05:31:24;;;;;;;8.80;8.00;;;25.80;99.90;;;;;;5005045;28;20182;-66
2023/07/10 05:33:50;;;;;;;8.57;7.83;;;26.00;99.90;;;;;;4991352;28;20186;-66
2023/07/10 05:36:17;;;;;;;8.17;7.40;;;26.30;99.90;;;;;;4989571;28;20235;-66
2023/07/10 05:38:48;;;;;;;7.87;7.17;;;26.50;99.90;;;;;;4989641;28;20187;-66
2023/07/10 05:41:14;;;;;;;8.63;7.83;;;26.60;99.90;;;;;;4992072;28;20469;-66
2023/07/10 05:43:40;;;;;;;8.53;7.73;;;26.70;99.90;;;;;;4993210;28;20446;-66
2023/07/10 05:46:05;;;;;;;8.00;7.20;;;26.80;99.90;;;;;;4986595;28;20462;-65
2023/07/10 05:48:31;;;;;;;8.30;7.50;;;26.70;99.90;;;;;;4989233;28;20227;-66
2023/07/10 05:50:57;;;;;;;8.63;7.80;;;26.50;99.90;;;;;;4992218;28;20184;-66
2023/07/10 05:53:22;;;;;;;9.17;8.23;;;26.30;99.90;;;;;;4982371;28;20186;-66
2023/07/10 05:55:51;;;;;;;7.20;6.60;;;26.20;99.90;;;;;;4987968;28;20245;-66
2023/07/10 05:58:17;;;;;;;9.17;7.67;;;26.00;99.90;;;;;;4990001;28;20208;-66
2023/07/10 06:00:43;;;;;;;8.67;7.90;;;25.90;99.90;;;;;;4988863;28;20445;-69
2023/07/10 06:03:09;;;;;;;8.37;7.57;;;25.80;99.90;;;;;;4992214;28;20540;-65
2023/07/10 06:05:35;;;;;;;15.73;8.10;;;25.80;99.90;;;;;;4990002;28;20206;-68
2023/07/10 06:08:01;;;;;;;9.30;8.30;;;26.00;99.90;;;;;;4995433;28;20536;-67
2023/07/10 06:10:26;;;;;;;8.77;8.17;;;26.30;99.90;;;;;;4997570;28;20213;-67
2023/07/10 06:12:52;;;;;;;8.53;7.63;;;26.60;99.90;;;;;;4993254;28;20194;-69
2023/07/10 06:15:17;;;;;;;8.33;7.53;;;27.00;99.90;;;;;;4997222;28;20194;-67
2023/07/10 06:17:43;;;;;;;7.70;7.10;;;27.30;99.90;;;;;;4993973;28;20230;-66
2023/07/10 06:20:09;;;;;;;7.23;6.53;;;27.50;99.90;;;;;;4994425;28;20191;-69
2023/07/10 06:22:34;;;;;;;7.60;6.70;;;27.80;99.90;;;;;;4991042;28;20323;-67
2023/07/10 06:25:00;;;;;;;7.37;6.67;;;28.00;99.90;;;;;;4987424;28;20470;-67
2023/07/10 06:27:25;;;;;;;7.60;7.00;;;28.20;99.90;;;;;;4991876;28;20286;-67
2023/07/10 06:29:51;;;;;;;10.83;8.40;;;28.50;99.90;;;;;;4995934;28;20175;-67
2023/07/10 06:32:18;;;;;;;12.93;7.93;;;28.80;99.90;;;;;;5000617;28;20547;-66
2023/07/10 06:34:43;;;;;;;9.57;8.20;;;28.80;99.90;;;;;;4991350;28;20441;-66
2023/07/10 06:37:09;;;;;;;7.83;6.83;;;28.80;99.90;;;;;;4986465;28;20450;-67
2023/07/10 06:39:34;;;;;;;8.00;7.20;;;29.10;99.90;;;;;;4985262;28;20172;-67
2023/07/10 06:42:00;;;;;;;7.47;6.70;;;29.20;99.00;;;;;;4988923;28;20231;-67
2023/07/10 06:44:25;;;;;;;12.50;6.90;;;29.30;98.20;;;;;;4982648;28;20227;-67
2023/07/10 06:46:51;;;;;;;7.20;6.50;;;29.50;98.30;;;;;;4982051;28;20215;-67
2023/07/10 06:49:16;;;;;;;9.63;7.30;;;30.10;96.40;;;;;;4987988;28;20183;-67
2023/07/10 06:51:42;;;;;;;7.37;6.77;;;30.30;95.60;;;;;;4991956;28;20238;-67
2023/07/10 06:54:08;;;;;;;10.37;6.33;;;30.60;95.30;;;;;;4990707;28;20183;-66
2023/07/10 06:56:34;;;;;;;7.30;6.70;;;30.80;94.20;;;;;;4990519;28;20183;-66
2023/07/10 06:58:59;;;;;;;6.90;6.30;;;30.50;93.80;;;;;;4991335;28;20445;-67
2023/07/10 07:01:25;;;;;;;8.23;7.43;;;30.20;94.00;;;;;;4993526;28;20462;-68
2023/07/10 07:03:50;;;;;;;7.37;6.70;;;29.90;94.70;;;;;;4989894;28;20245;-68
2023/07/10 07:06:16;;;;;;;6.90;6.30;;;30.10;94.50;;;;;;4990736;28;20624;-68
2023/07/10 07:08:46;;;;;;;8.93;7.10;;;30.50;93.90;;;;;;4991076;28;20673;-67
2023/07/10 07:11:12;;;;;;;12.23;6.60;;;31.00;93.20;;;;;;4976445;28;20645;-67
2023/07/10 07:13:37;;;;;;;7.83;6.50;;;30.80;92.90;;;;;;4992177;28;20462;-68
2023/07/10 07:16:04;;;;;;;6.90;6.20;;;31.00;92.70;;;;;;4992048;28;20224;-68
2023/07/10 07:18:31;;;;;;;8.93;6.50;;;31.00;92.00;;;;;;4991876;28;20210;-68
2023/07/10 07:20:57;;;;;;;7.73;7.13;;;30.70;92.10;;;;;;4992337;28;20438;-68
2023/07/10 07:23:23;;;;;;;6.50;6.00;;;30.60;92.30;;;;;;4992360;28;20938;-68
2023/07/10 07:25:49;;;;;;;8.90;6.37;;;30.30;92.80;;;;;;4992191;28;20586;-68
2023/07/10 07:28:14;;;;;;;6.23;5.73;;;30.10;93.50;;;;;;4992081;28;20966;-67
2023/07/10 07:30:47;;;;;;;7.37;6.67;;;29.90;94.00;;;;;;4992201;28;20179;-68
2023/07/10 07:33:16;;;;;;;8.63;7.03;;;29.80;94.20;;;;;;4991988;28;20168;-70
2023/07/10 07:35:42;;;;;;;7.70;5.80;;;29.80;94.40;;;;;;4992377;28;20430;-68
2023/07/10 07:38:08;;;;;;;6.70;6.10;;;30.10;93.90;;;;;;4992196;28;20512;-68
2023/07/10 07:40:35;;;;;;;11.90;6.53;;;30.40;93.70;;;;;;4992224;28;20176;-68
2023/07/10 07:43:00;;;;;;;7.17;6.47;;;30.60;93.00;;;;;;4992218;28;20254;-67
2023/07/10 07:45:26;;;;;;;6.10;5.50;;;30.50;92.80;;;;;;4992040;28;21006;-70
2023/07/10 07:47:52;;;;;;;6.67;6.03;;;30.40;93.40;;;;;;4993993;28;20254;-70
2023/07/10 07:50:17;;;;;;;7.17;5.87;;;30.30;92.90;;;;;;4989987;28;20624;-67
2023/07/10 07:52:43;;;;;;;6.37;5.87;;;30.50;93.10;;;;;;4993371;28;20430;-67
2023/07/10 07:55:09;;;;;;;6.20;5.70;;;30.70;92.60;;;;;;4993542;28;20295;-67
2023/07/10 07:57:34;;;;;;;6.37;5.60;;;30.90;92.40;;;;;;4994737;28;20206;-70
2023/07/10 08:00:00;;;;;;;9.07;6.00;;;31.20;92.10;;;;;;4995231;28;20266;-69
2023/07/10 08:02:26;;;;;;;6.90;5.43;;;31.30;91.80;;;;;;4995635;28;20241;-67
2023/07/10 08:04:51;;;;;;;6.67;6.10;;;31.60;91.40;;;;;;4995279;28;20592;-69
2023/07/10 08:07:17;;;;;;;5.77;5.37;;;31.90;90.70;;;;;;5022812;23;21264;-70
2023/07/10 08:09:42;;;;;;;6.07;5.50;;;32.20;89.50;;;;;;5005899;28;20167;-70
2023/07/10 08:12:08;;;;;;;6.10;5.70;;;32.40;88.30;;;;;;5004820;28;20186;-70
2023/07/10 08:14:34;;;;;;;6.80;6.30;;;32.80;87.30;;;;;;5012710;28;20171;-69
2023/07/10 08:17:00;;;;;;;7.20;6.27;;;33.10;84.40;;;;;;5014781;28;20437;-70
2023/07/10 08:19:26;;;;;;;7.20;6.60;;;33.10;83.30;;;;;;5000208;28;20594;-69
2023/07/10 08:21:54;;;;;;;7.10;6.50;;;33.00;83.60;;;;;;4977711;28;20415;-69
2023/07/10 08:24:20;;;;;;;6.40;6.00;;;32.50;84.30;;;;;;4995057;28;20167;-70
2023/07/10 08:26:45;;;;;;;6.47;5.87;;;32.40;85.10;;;;;;4994082;28;20963;-70
2023/07/10 08:29:41;;;;;;;6.50;6.00;;;32.60;85.50;;;;;;4997672;28;20182;-70
2023/07/10 08:32:06;;;;;;;7.93;6.50;;;32.70;85.10;;;;;;4975729;28;20187;-70
2023/07/10 08:34:32;;;;;;;7.90;7.20;;;32.60;85.40;;;;;;5014410;28;20414;-71
2023/07/10 08:36:59;;;;;;;6.37;5.77;;;32.20;86.80;;;;;;5008300;28;20223;-69
2023/07/10 08:39:24;;;;;;;6.47;5.87;;;32.40;87.10;;;;;;5001757;28;20672;-69
2023/07/10 08:41:58;;;;;;;9.70;6.67;;;32.80;86.50;;;;;;5004025;28;20444;-70
2023/07/10 08:44:33;;;;;;;6.83;6.20;;;33.40;83.40;;;;;;4993996;28;20652;-69
2023/07/10 08:47:00;;;;;;;7.10;6.50;;;33.50;81.60;;;;;;4994612;28;20564;-69
2023/07/10 08:49:34;;;;;;;7.67;6.93;;;33.60;80.60;;;;;;4988660;28;20427;-70
2023/07/10 08:52:10;;;;;;;7.60;6.97;;;33.90;79.70;;;;;;4976806;28;20431;-70
2023/07/10 08:54:36;;;;;;;8.83;6.80;;;34.20;76.60;;;;;;5002783;28;20887;-70
2023/07/10 08:57:11;;;;;;;8.80;6.70;;;33.90;77.20;;;;;;5001512;28;20548;-71
2023/07/10 09:00:02;;;;;;;7.37;6.60;;;34.20;75.50;;;;;;5005251;28;20242;-69
2023/07/10 09:03:06;;;;;;;7.77;6.83;;;33.80;75.70;;;;;;4994083;28;20927;-70
2023/07/10 09:05:34;;;;;;;6.83;6.33;;;33.80;76.50;;;;;;4994550;28;20528;-69
2023/07/10 09:08:04;;;;;;;6.90;6.30;;;33.80;76.90;;;;;;4994227;28;20539;-69
2023/07/10 09:10:40;;;;;;;7.87;7.17;;;34.20;76.30;;;;;;4999053;28;20468;-71
2023/07/10 09:13:12;;;;;;;6.20;5.80;;;34.30;75.40;;;;;;5005714;28;20421;-70
2023/07/10 09:16:10;;;;;;;7.57;6.60;;;33.90;75.30;;;;;;5013791;28;20422;-69
2023/07/10 09:18:52;;;;;;;8.47;6.40;;;33.10;78.40;;;;;;5013010;28;20504;-69
2023/07/10 09:21:21;;;;;;;7.97;7.17;;;33.20;79.60;;;;;;4996165;28;20461;-70
2023/07/10 09:23:48;;;;;;;7.53;6.90;;;34.00;78.70;;;;;;5013715;28;20788;-70
2023/07/10 09:26:21;;;;;;;7.87;7.20;;;34.70;77.60;;;;;;5007402;28;20477;-70
2023/07/10 09:29:09;;;;;;;6.60;6.20;;;34.70;76.10;;;;;;5001699;28;20446;-69
2023/07/10 09:31:53;;;;;;;7.87;7.17;;;34.40;77.10;;;;;;4993959;28;21015;-69
2023/07/10 09:34:28;;;;;;;8.53;7.00;;;34.70;76.50;;;;;;4993805;28;20418;-69
2023/07/10 09:36:56;;;;;;;7.80;7.10;;;34.50;76.10;;;;;;4993697;28;20441;-68
2023/07/10 09:39:27;;;;;;;7.73;6.83;;;34.70;76.20;;;;;;4993692;28;20860;-69
2023/07/10 09:41:52;;;;;;;7.40;6.80;;;34.70;74.70;;;;;;5000137;28;20445;-70
2023/07/10 09:44:19;;;;;;;6.50;6.10;;;34.60;75.70;;;;;;5006066;28;20417;-69
2023/07/10 09:46:45;;;;;;;7.53;6.93;;;34.70;75.50;;;;;;5013663;28;20195;-69
2023/07/10 09:49:22;;;;;;;7.77;7.07;;;34.50;75.60;;;;;;5013052;28;20433;-70
2023/07/10 09:51:57;;;;;;;7.03;6.43;;;34.90;74.70;;;;;;5013228;28;20170;-66
2023/07/10 09:54:23;;;;;;;6.80;6.30;;;35.50;73.50;;;;;;5013053;28;20449;-69
2023/07/10 09:56:51;;;;;;;7.57;6.70;;;36.10;71.60;;;;;;4996443;28;20445;-69
2023/07/10 09:59:26;;;;;;;8.50;7.23;;;36.40;70.80;;;;;;4989388;28;20489;-71
2023/07/10 10:01:54;;;;;;;6.60;6.00;;;36.50;70.50;;;;;;4986915;28;20452;-69
2023/07/10 10:04:26;;;;;;;7.73;7.07;;;36.20;69.80;;;;;;4984965;28;21021;-68
2023/07/10 10:07:12;;;;;;;8.63;7.93;;;36.30;70.20;;;;;;4982161;28;20471;-70
2023/07/10 10:09:37;;;;;;;7.43;6.83;;;36.70;69.20;;;;;;4998536;28;20444;-69
2023/07/10 10:12:14;;;;;;;8.80;8.10;;;37.40;67.50;;;;;;4996483;28;20821;-69
2023/07/10 10:14:44;;;;;;;7.50;6.80;;;37.40;65.80;;;;;;4982117;28;20176;-69
2023/07/10 10:17:14;;;;;;;7.30;6.73;;;37.50;65.00;;;;;;4988915;28;20458;-69
2023/07/10 10:19:47;;;;;;;7.07;6.47;;;37.40;65.40;;;;;;4995249;28;21068;-69
2023/07/10 10:22:14;;;;;;;7.90;7.20;;;38.00;63.30;;;;;;4986141;28;20541;-67
2023/07/10 10:24:40;;;;;;;7.57;6.87;;;37.90;61.90;;;;;;4989961;28;20443;-67
2023/07/10 10:27:32;;;;;;;7.40;6.90;;;37.50;62.20;;;;;;4989680;28;20826;-66
2023/07/10 10:30:13;;;;;;;8.03;7.23;;;37.70;61.70;;;;;;4987695;28;20446;-67
2023/07/10 10:33:18;;;;;;;7.23;6.73;;;38.00;61.40;;;;;;4993902;28;20435;-67
2023/07/10 10:36:01;;;;;;;7.90;7.23;;;38.10;60.00;;;;;;4985219;28;20445;-67
2023/07/10 10:38:56;;;;;;;6.80;6.30;;;38.20;59.90;;;;;;4985795;28;20627;-67
2023/07/10 10:41:29;;;;;;;6.93;6.53;;;37.80;60.00;;;;;;4976383;28;20434;-67
2023/07/10 10:43:54;;;;;;;9.73;7.40;;;38.20;59.70;;;;;;4988852;28;20526;-67
2023/07/10 10:46:29;;;;;;;6.63;6.13;;;37.40;59.60;;;;;;4986168;28;21058;-68
2023/07/10 10:49:37;;;;;;;8.43;6.87;;;38.40;59.50;;;;;;4992058;28;20289;-66
2023/07/10 10:52:11;;;;;;;8.23;7.43;;;38.50;59.00;;;;;;4978464;28;20450;-66
2023/07/10 10:55:18;;;;;;;7.43;6.80;;;39.30;57.80;;;;;;4987033;28;20525;-66
2023/07/10 10:58:05;;;;;;;7.30;6.70;;;39.00;57.60;;;;;;4988323;28;20461;-66
2023/07/10 11:01:06;;;;;;;7.73;7.07;;;39.10;57.10;;;;;;4985913;28;20450;-67
2023/07/10 11:03:49;;;;;;;7.97;7.27;;;39.00;56.90;;;;;;4964348;28;20514;-66
2023/07/10 11:06:39;;;;;;;7.83;7.13;;;40.30;56.00;;;;;;4999872;28;20459;-66
2023/07/10 11:09:12;;;;;;;7.43;6.80;;;40.60;54.70;;;;;;4995917;28;20455;-67
2023/07/10 11:11:39;;;;;;;7.40;6.90;;;40.50;53.20;;;;;;4996065;28;20435;-67
2023/07/10 11:14:06;;;;;;;7.80;7.30;;;40.90;53.10;;;;;;4999920;28;20430;-67
2023/07/10 11:16:33;;;;;;;8.80;6.80;;;41.20;51.60;;;;;;4999908;28;20510;-66
2023/07/10 11:19:02;;;;;;;7.43;6.93;;;40.20;51.80;;;;;;4992245;28;20461;-67
2023/07/10 11:21:28;;;;;;;7.87;6.40;;;39.50;53.00;;;;;;4991485;28;20935;-66
2023/07/10 11:23:54;;;;;;;7.27;6.53;;;39.80;52.70;;;;;;4963303;28;20892;-66
2023/07/10 11:26:24;;;;;;;7.60;6.90;;;39.60;52.40;;;;;;4990074;28;20549;-67
2023/07/10 11:29:00;;;;;;;8.43;7.63;;;38.10;53.60;;;;;;4999493;28;20207;-67
2023/07/10 11:31:36;;;;;;;7.67;6.97;;;37.60;54.50;;;;;;4997661;28;20420;-67
2023/07/10 11:34:05;;;;;;;7.20;6.60;;;37.80;54.60;;;;;;5009715;28;20540;-66
2023/07/10 11:36:33;;;;;;;7.40;6.80;;;37.20;52.90;;;;;;4992149;28;20804;-68
2023/07/10 11:39:11;;;;;;;7.77;7.17;;;36.20;54.30;;;;;;4993732;28;20481;-67
2023/07/10 11:41:43;;;;;;;7.67;6.97;;;36.60;54.80;;;;;;4991814;28;20434;-67
2023/07/10 11:44:14;;;;;;;8.00;6.87;;;38.20;52.40;;;;;;4996299;28;20820;-67
2023/07/10 11:47:00;;;;;;;7.63;7.10;;;39.90;50.40;;;;;;4993596;28;20474;-68
2023/07/10 11:49:35;;;;;;;7.37;6.77;;;40.40;49.70;;;;;;4986061;28;20488;-67
2023/07/10 11:52:16;;;;;;;7.80;7.20;;;41.20;48.10;;;;;;4990279;28;20458;-67
2023/07/10 11:54:42;;;;;;;7.33;6.70;;;40.50;47.80;;;;;;4982043;28;20439;-67
2023/07/10 11:57:08;;;;;;;6.23;5.73;;;39.30;47.90;;;;;;4992203;28;20857;-66
2023/07/10 11:59:37;;;;;;;6.23;5.83;;;39.40;47.80;;;;;;4975315;28;20443;-67
2023/07/10 12:02:24;;;;;;;5.87;5.47;;;40.20;43.10;;;;;;4993173;28;20183;-67
2023/07/10 12:04:50;;;;;;;6.30;5.90;;;41.00;39.30;;;;;;4986385;28;20454;-68
2023/07/10 12:07:16;;;;;;;7.47;5.23;;;41.50;38.60;;;;;;5003011;28;20568;-67
2023/07/10 12:09:41;;;;;;;6.40;6.00;;;41.40;38.30;;;;;;4995772;28;20183;-67
2023/07/10 12:12:11;;;;;;;7.67;5.90;;;42.90;37.60;;;;;;4992550;28;20851;-67
2023/07/10 12:14:36;;;;;;;6.80;6.10;;;41.70;35.10;;;;;;5006198;28;20175;-67
2023/07/10 12:17:06;;;;;;;8.27;6.07;;;41.80;34.40;;;;;;4993185;28;20513;-67
2023/07/10 12:19:36;;;;;;;6.67;5.83;;;42.30;36.40;;;;;;4987721;28;20176;-67
2023/07/10 12:22:03;;;;;;;5.80;5.30;;;40.20;39.30;;;;;;4991314;28;20521;-67
2023/07/10 12:24:29;;;;;;;6.60;5.97;;;39.10;41.40;;;;;;4992800;28;20449;-67
2023/07/10 12:26:56;;;;;;;6.10;5.70;;;39.90;40.60;;;;;;4986919;28;20497;-67
2023/07/10 12:29:22;;;;;;;6.43;6.03;;;40.30;40.00;;;;;;4992797;28;20435;-68
2023/07/10 12:31:48;;;;;;;6.33;5.73;;;40.70;39.40;;;;;;4995088;28;20478;-68
2023/07/10 12:34:20;;;;;;;7.43;5.70;;;41.40;38.60;;;;;;5003076;28;20426;-67
2023/07/10 12:36:50;;;;;;;5.80;5.40;;;40.80;38.20;;;;;;4995168;28;20447;-67
2023/07/10 12:39:15;;;;;;;6.23;5.80;;;41.00;37.60;;;;;;4992848;28;20465;-67
2023/07/10 12:41:46;;;;;;;5.70;5.23;;;40.70;37.80;;;;;;4991272;28;20442;-67
2023/07/10 12:44:20;;;;;;;6.87;6.37;;;42.20;36.40;;;;;;4991671;28;20656;-67
2023/07/10 12:46:45;;;;;;;6.50;6.03;;;44.30;35.60;;;;;;4990742;28;20485;-66
2023/07/10 12:49:13;;;;;;;5.60;5.20;;;44.70;34.00;;;;;;5003436;28;20955;-66
2023/07/10 12:51:42;;;;;;;5.63;5.20;;;44.40;33.30;;;;;;4990516;28;20175;-67
2023/07/10 12:54:24;;;;;;;5.90;5.40;;;43.70;32.40;;;;;;4993324;28;20807;-68